Time;durP1;ratioP1;P1;durP2;ratioP2;P2;SDS_P1;SDS_P2;PMS_P1;PMS_P2;Temp;Humidity;BMP_temperature;BMP_pressure;BME280_temperature;BME280_humidity;BME280_pressure;Samples;Min_cycle;Max_cycle;Signal;HPM_P1;HPM_P2
2024/02/21 00:01:41;;;;;;;;;;;;;;;;;;5014455;28;20041;-55
2024/02/21 00:04:06;;;;;;;11.65;2.45;;;;;;;;;;5013518;28;19909;-56
2024/02/21 00:06:32;;;;;;;9.25;2.33;;;;;;;;;;5011270;28;20042;-55
2024/02/21 00:08:57;;;;;;;10.98;2.22;;;;;;;;;;5013928;28;20065;-56
2024/02/21 00:11:22;;;;;;;8.10;2.03;;;;;;;;;;5013230;28;20037;-56
2024/02/21 00:13:47;;;;;;;11.55;2.00;;;;;;;;;;5012930;28;20072;-57
2024/02/21 00:16:15;;;;;;;11.73;2.00;;;;;;;;;;5013202;28;20022;-57
2024/02/21 00:18:40;;;;;;;9.57;2.53;;;;;;;;;;5013133;28;20026;-55
2024/02/21 00:21:05;;;;;;;9.52;2.15;;;;;;;;;;5013310;28;20033;-56
2024/02/21 00:23:30;;;;;;;10.67;1.97;;;;;;;;;;5001532;28;20054;-56
2024/02/21 00:25:56;;;;;;;9.25;2.00;;;;;;;;;;4994520;28;20394;-55
2024/02/21 00:28:21;;;;;;;8.93;2.10;;;;;;;;;;4995074;28;20038;-56
2024/02/21 00:30:47;;;;;;;9.40;2.60;;;;;;;;;;5000095;28;20025;-58
2024/02/21 00:33:13;;;;;;;8.98;1.90;;;;;;;;;;5034449;28;20021;-56
2024/02/21 00:35:38;;;;;;;10.05;2.08;;;;;;;;;;5032341;28;20018;-56
2024/02/21 00:38:03;;;;;;;12.40;2.17;;;;;;;;;;5032588;28;20018;-57
2024/02/21 00:40:29;;;;;;;10.40;2.07;;;;;;;;;;5032480;28;20397;-57
2024/02/21 00:42:54;;;;;;;10.80;1.88;;;;;;;;;;5032384;28;20049;-55
2024/02/21 00:45:20;;;;;;;9.47;2.17;;;;;;;;;;5032401;28;20049;-55
2024/02/21 00:47:45;;;;;;;8.98;2.33;;;;;;;;;;5007888;28;20478;-56
2024/02/21 00:50:10;;;;;;;13.27;2.20;;;;;;;;;;5012351;28;20059;-56
2024/02/21 00:52:35;;;;;;;12.13;2.10;;;;;;;;;;5012615;28;20030;-57
2024/02/21 00:55:00;;;;;;;6.95;1.70;;;;;;;;;;5012549;28;20474;-56
2024/02/21 00:57:26;;;;;;;9.73;1.93;;;;;;;;;;5012959;28;20026;-55
2024/02/21 00:59:51;;;;;;;7.50;1.85;;;;;;;;;;5012226;28;20026;-56
2024/02/21 01:02:16;;;;;;;7.77;1.90;;;;;;;;;;5012301;28;20026;-56
2024/02/21 01:04:41;;;;;;;12.33;2.73;;;;;;;;;;5012559;28;20034;-56
2024/02/21 01:07:07;;;;;;;10.97;2.10;;;;;;;;;;5013603;28;20033;-56
2024/02/21 01:09:32;;;;;;;7.93;1.90;;;;;;;;;;5012895;28;20022;-56
2024/02/21 01:11:57;;;;;;;8.13;2.00;;;;;;;;;;5012431;28;20030;-56
2024/02/21 01:14:22;;;;;;;12.75;2.03;;;;;;;;;;5012140;28;20025;-56
2024/02/21 01:16:47;;;;;;;9.17;1.90;;;;;;;;;;5012764;28;20044;-57
2024/02/21 01:19:12;;;;;;;10.90;2.05;;;;;;;;;;5012342;28;20189;-57
2024/02/21 01:21:37;;;;;;;8.75;1.90;;;;;;;;;;5012405;28;20045;-56
2024/02/21 01:24:03;;;;;;;13.57;2.00;;;;;;;;;;5012039;28;20030;-56
2024/02/21 01:26:28;;;;;;;10.60;2.17;;;;;;;;;;5012323;28;20484;-56
2024/02/21 01:28:53;;;;;;;10.13;2.00;;;;;;;;;;5011922;28;20064;-56
2024/02/21 01:31:18;;;;;;;8.60;1.80;;;;;;;;;;5018830;28;20041;-56
2024/02/21 01:33:43;;;;;;;6.35;1.92;;;;;;;;;;5032116;28;20670;-57
2024/02/21 01:36:09;;;;;;;12.57;2.30;;;;;;;;;;5032197;28;20068;-57
2024/02/21 01:38:34;;;;;;;10.00;1.90;;;;;;;;;;5032011;28;20432;-56
2024/02/21 01:40:59;;;;;;;10.15;2.20;;;;;;;;;;5032823;28;20028;-55
2024/02/21 01:43:24;;;;;;;11.00;2.15;;;;;;;;;;5036023;28;20041;-56
2024/02/21 01:45:50;;;;;;;9.18;1.80;;;;;;;;;;5033710;28;20037;-56
2024/02/21 01:48:18;;;;;;;10.07;1.98;;;;;;;;;;5016620;28;20030;-57
2024/02/21 01:50:48;;;;;;;11.60;2.10;;;;;;;;;;5013167;28;20532;-56
2024/02/21 01:53:18;;;;;;;9.18;1.90;;;;;;;;;;5000471;28;20023;-56
2024/02/21 01:55:44;;;;;;;10.10;1.92;;;;;;;;;;4994423;28;20025;-57
2024/02/21 01:58:09;;;;;;;8.38;1.90;;;;;;;;;;5003526;28;20081;-56
2024/02/21 02:00:35;;;;;;;7.13;1.90;;;;;;;;;;4999872;28;20022;-57
2024/02/21 02:03:01;;;;;;;9.60;2.00;;;;;;;;;;4997375;28;20053;-56
2024/02/21 02:05:26;;;;;;;10.13;2.00;;;;;;;;;;5003221;28;20444;-57
2024/02/21 02:07:52;;;;;;;9.85;1.95;;;;;;;;;;4993817;28;20077;-57
2024/02/21 02:10:17;;;;;;;8.73;1.80;;;;;;;;;;4993187;28;20077;-56
2024/02/21 02:12:42;;;;;;;9.55;2.00;;;;;;;;;;4994294;28;20046;-56
2024/02/21 02:15:08;;;;;;;8.95;2.13;;;;;;;;;;4995059;28;20065;-57
2024/02/21 02:17:33;;;;;;;9.97;2.17;;;;;;;;;;4997242;28;20030;-61
2024/02/21 02:19:58;;;;;;;8.93;1.80;;;;;;;;;;5011734;28;20426;-56
2024/02/21 02:22:27;;;;;;;8.55;1.90;;;;;;;;;;4992874;28;20106;-56
2024/02/21 02:24:52;;;;;;;10.13;1.67;;;;;;;;;;4991825;28;20030;-57
2024/02/21 02:27:18;;;;;;;10.03;2.00;;;;;;;;;;4993356;28;20030;-55
2024/02/21 02:29:43;;;;;;;9.65;2.28;;;;;;;;;;4993968;28;20057;-56
2024/02/21 02:32:09;;;;;;;9.10;2.10;;;;;;;;;;4995127;28;20019;-55
2024/02/21 02:34:34;;;;;;;7.93;2.10;;;;;;;;;;4993985;28;20025;-57
2024/02/21 02:36:59;;;;;;;10.95;2.30;;;;;;;;;;4994057;28;20151;-56
2024/02/21 02:39:24;;;;;;;8.82;2.35;;;;;;;;;;4992249;28;20479;-57
2024/02/21 02:41:50;;;;;;;8.27;1.93;;;;;;;;;;4991542;28;20014;-58
2024/02/21 02:44:16;;;;;;;7.35;1.60;;;;;;;;;;4991716;28;20027;-57
2024/02/21 02:46:41;;;;;;;7.15;1.70;;;;;;;;;;5004833;28;20722;-57
2024/02/21 02:49:06;;;;;;;6.45;1.55;;;;;;;;;;5011284;28;20156;-56
2024/02/21 02:51:32;;;;;;;9.55;2.13;;;;;;;;;;5011872;28;20041;-56
2024/02/21 02:53:57;;;;;;;11.88;2.22;;;;;;;;;;5011831;28;20524;-55
2024/02/21 02:56:22;;;;;;;9.40;2.50;;;;;;;;;;5014936;28;20024;-56
2024/02/21 02:58:47;;;;;;;8.18;1.98;;;;;;;;;;5002010;28;20026;-56
2024/02/21 03:01:13;;;;;;;9.13;1.93;;;;;;;;;;4991599;28;20018;-56
2024/02/21 03:03:38;;;;;;;10.27;1.92;;;;;;;;;;4991180;28;20041;-56
2024/02/21 03:06:04;;;;;;;9.90;2.03;;;;;;;;;;4992327;28;20489;-56
2024/02/21 03:08:29;;;;;;;9.52;1.90;;;;;;;;;;4992944;28;20022;-56
2024/02/21 03:10:54;;;;;;;11.17;1.90;;;;;;;;;;4992593;28;20109;-55
2024/02/21 03:13:19;;;;;;;7.68;1.90;;;;;;;;;;4991415;28;20022;-56
2024/02/21 03:15:44;;;;;;;9.73;2.17;;;;;;;;;;4991240;28;20029;-57
2024/02/21 03:18:10;;;;;;;10.10;2.23;;;;;;;;;;4991177;28;20027;-56
2024/02/21 03:20:35;;;;;;;10.40;2.10;;;;;;;;;;4991222;28;20180;-56
2024/02/21 03:23:00;;;;;;;10.52;2.13;;;;;;;;;;4990957;28;20076;-57
2024/02/21 03:25:25;;;;;;;9.60;2.50;;;;;;;;;;4990842;28;20030;-56
2024/02/21 03:27:51;;;;;;;8.70;2.10;;;;;;;;;;4991418;28;20027;-57
2024/02/21 03:30:16;;;;;;;11.27;2.50;;;;;;;;;;4994853;28;20077;-56
2024/02/21 03:32:41;;;;;;;9.88;1.95;;;;;;;;;;5031565;28;20021;-56
2024/02/21 03:35:07;;;;;;;9.02;2.33;;;;;;;;;;5033741;28;20029;-57
2024/02/21 03:37:32;;;;;;;7.37;2.10;;;;;;;;;;5032591;28;20470;-56
2024/02/21 03:39:57;;;;;;;9.03;2.23;;;;;;;;;;5033708;28;20048;-55
2024/02/21 03:42:22;;;;;;;10.55;2.20;;;;;;;;;;5033691;28;20440;-56
2024/02/21 03:44:47;;;;;;;7.87;2.10;;;;;;;;;;5033581;28;20598;-55
2024/02/21 03:47:13;;;;;;;10.82;2.30;;;;;;;;;;5033761;28;20428;-57
2024/02/21 03:49:38;;;;;;;11.90;2.30;;;;;;;;;;5018339;28;20525;-56
2024/02/21 03:52:03;;;;;;;8.98;2.30;;;;;;;;;;4994339;28;20034;-56
2024/02/21 03:54:28;;;;;;;6.30;2.00;;;;;;;;;;5009261;28;20026;-57
2024/02/21 03:56:53;;;;;;;11.77;2.72;;;;;;;;;;4994471;28;20429;-56
2024/02/21 03:59:19;;;;;;;10.87;2.87;;;;;;;;;;4994699;28;20018;-55
2024/02/21 04:01:44;;;;;;;12.07;2.60;;;;;;;;;;4994364;28;20076;-58
2024/02/21 04:04:09;;;;;;;12.82;2.58;;;;;;;;;;4994113;28;20102;-56
2024/02/21 04:06:34;;;;;;;11.45;2.55;;;;;;;;;;5009503;28;20038;-55
2024/02/21 04:09:00;;;;;;;7.03;2.28;;;;;;;;;;5014532;28;20499;-56
2024/02/21 04:11:25;;;;;;;9.75;2.20;;;;;;;;;;5013187;28;20034;-55
2024/02/21 04:13:51;;;;;;;6.53;1.87;;;;;;;;;;5013530;28;20014;-56
2024/02/21 04:16:16;;;;;;;10.57;2.25;;;;;;;;;;5013958;28;20553;-56
2024/02/21 04:18:41;;;;;;;7.13;2.10;;;;;;;;;;5013675;28;20100;-55
2024/02/21 04:21:06;;;;;;;8.27;2.00;;;;;;;;;;5013456;28;20049;-55
2024/02/21 04:23:32;;;;;;;12.27;2.70;;;;;;;;;;5012982;28;20463;-55
2024/02/21 04:25:57;;;;;;;13.68;2.30;;;;;;;;;;5013420;28;20030;-55
2024/02/21 04:28:22;;;;;;;7.78;2.75;;;;;;;;;;5013634;28;20022;-56
2024/02/21 04:30:47;;;;;;;9.13;2.70;;;;;;;;;;5016427;28;20116;-56
2024/02/21 04:33:12;;;;;;;10.90;2.50;;;;;;;;;;5034118;28;20037;-57
2024/02/21 04:35:39;;;;;;;8.03;2.10;;;;;;;;;;5032968;28;20419;-57
2024/02/21 04:38:04;;;;;;;;;;;;;;;;;;5033877;28;20024;-56
2024/02/21 04:40:30;;;;;;;11.60;2.50;;;;;;;;;;5030346;28;19951;-55
2024/02/21 04:42:55;;;;;;;11.85;2.38;;;;;;;;;;5032775;28;20113;-56
2024/02/21 04:45:20;;;;;;;10.00;2.63;;;;;;;;;;5011342;28;20025;-56
2024/02/21 04:47:45;;;;;;;10.23;2.40;;;;;;;;;;5010939;28;20034;-56
2024/02/21 04:50:11;;;;;;;7.43;2.30;;;;;;;;;;5012643;28;20076;-56
2024/02/21 04:52:36;;;;;;;12.70;2.67;;;;;;;;;;5013687;28;20537;-56
2024/02/21 04:55:01;;;;;;;12.18;2.70;;;;;;;;;;5014088;28;20021;-56
2024/02/21 04:57:26;;;;;;;11.52;2.30;;;;;;;;;;5014278;28;20043;-56
2024/02/21 04:59:51;;;;;;;8.95;2.72;;;;;;;;;;5014922;28;20572;-56
2024/02/21 05:02:16;;;;;;;9.07;2.17;;;;;;;;;;5012535;28;20026;-56
2024/02/21 05:04:42;;;;;;;7.50;2.40;;;;;;;;;;5014589;28;20037;-56
2024/02/21 05:07:07;;;;;;;10.20;2.67;;;;;;;;;;5017694;28;20045;-57
2024/02/21 05:09:32;;;;;;;8.70;2.17;;;;;;;;;;5020209;28;20101;-56
2024/02/21 05:12:01;;;;;;;7.93;2.00;;;;;;;;;;5015866;28;20065;-56
2024/02/21 05:14:29;;;;;;;12.00;2.00;;;;;;;;;;5013793;28;20109;-57
2024/02/21 05:16:54;;;;;;;11.20;2.42;;;;;;;;;;5014593;28;20061;-57
2024/02/21 05:19:20;;;;;;;10.48;2.60;;;;;;;;;;5014747;28;20013;-55
2024/02/21 05:21:45;;;;;;;10.65;2.53;;;;;;;;;;5014858;28;20018;-56
2024/02/21 05:24:10;;;;;;;10.40;2.40;;;;;;;;;;5012416;28;20022;-56
2024/02/21 05:26:35;;;;;;;11.33;2.57;;;;;;;;;;5003021;28;20026;-56
2024/02/21 05:29:00;;;;;;;10.52;2.30;;;;;;;;;;5007725;28;20038;-54
2024/02/21 05:31:26;;;;;;;10.30;2.45;;;;;;;;;;5008604;28;20029;-56
2024/02/21 05:33:51;;;;;;;9.88;2.50;;;;;;;;;;5031760;28;20061;-56
2024/02/21 05:36:16;;;;;;;6.55;2.22;;;;;;;;;;5032282;28;20017;-55
2024/02/21 05:38:41;;;;;;;10.13;2.37;;;;;;;;;;5022556;28;20025;-56
2024/02/21 05:41:06;;;;;;;10.80;2.65;;;;;;;;;;5011201;28;20018;-55
2024/02/21 05:43:32;;;;;;;8.25;2.53;;;;;;;;;;5010109;28;20026;-55
2024/02/21 05:45:57;;;;;;;7.30;3.03;;;;;;;;;;5011705;28;20048;-55
2024/02/21 05:48:22;;;;;;;13.88;2.40;;;;;;;;;;5011756;28;20030;-57
2024/02/21 05:50:48;;;;;;;10.57;2.53;;;;;;;;;;5011313;28;20128;-56
2024/02/21 05:53:13;;;;;;;9.53;2.17;;;;;;;;;;5011677;28;20018;-58
2024/02/21 05:55:38;;;;;;;11.43;2.27;;;;;;;;;;5003000;28;20018;-58
2024/02/21 05:58:03;;;;;;;12.07;2.43;;;;;;;;;;5011819;28;20071;-56
2024/02/21 06:00:29;;;;;;;8.57;2.30;;;;;;;;;;5011067;28;20033;-56
2024/02/21 06:02:54;;;;;;;10.98;2.10;;;;;;;;;;5008399;28;20053;-57
2024/02/21 06:05:20;;;;;;;9.57;2.50;;;;;;;;;;5007949;28;20383;-56
2024/02/21 06:07:45;;;;;;;9.57;2.17;;;;;;;;;;5008498;28;20468;-56
2024/02/21 06:10:11;;;;;;;9.87;2.50;;;;;;;;;;5007907;28;20036;-57
2024/02/21 06:12:36;;;;;;;9.02;2.10;;;;;;;;;;5005357;28;20040;-56
2024/02/21 06:15:01;;;;;;;8.00;2.40;;;;;;;;;;5018851;28;20021;-55
2024/02/21 06:17:26;;;;;;;11.27;2.17;;;;;;;;;;5008651;28;21301;-55
2024/02/21 06:19:51;;;;;;;9.15;2.53;;;;;;;;;;5008536;28;20026;-57
2024/02/21 06:22:16;;;;;;;8.48;2.38;;;;;;;;;;5007780;28;20057;-58
2024/02/21 06:24:42;;;;;;;9.82;2.60;;;;;;;;;;5007474;28;20471;-57
2024/02/21 06:27:07;;;;;;;9.02;2.92;;;;;;;;;;5011654;28;20022;-57
2024/02/21 06:29:33;;;;;;;7.63;2.20;;;;;;;;;;5013282;28;20029;-57
2024/02/21 06:31:59;;;;;;;8.18;2.28;;;;;;;;;;5017460;28;20030;-57
2024/02/21 06:34:24;;;;;;;9.15;2.58;;;;;;;;;;5013755;28;20029;-56
2024/02/21 06:36:50;;;;;;;9.23;2.40;;;;;;;;;;5014064;28;20095;-58
2024/02/21 06:39:15;;;;;;;9.60;2.55;;;;;;;;;;5010795;28;20022;-57
2024/02/21 06:41:42;;;;;;;8.77;2.47;;;;;;;;;;5011805;28;20089;-56
2024/02/21 06:44:07;;;;;;;9.05;2.38;;;;;;;;;;5011571;28;20492;-56
2024/02/21 06:46:33;;;;;;;11.87;2.50;;;;;;;;;;5011680;28;20101;-56
2024/02/21 06:48:58;;;;;;;10.25;2.50;;;;;;;;;;5011648;28;20018;-55
2024/02/21 06:51:24;;;;;;;9.90;2.60;;;;;;;;;;5011272;28;20029;-55
2024/02/21 06:53:49;;;;;;;11.52;2.40;;;;;;;;;;5011298;28;20497;-56
2024/02/21 06:56:15;;;;;;;9.93;2.57;;;;;;;;;;4995248;28;20030;-56
2024/02/21 06:58:40;;;;;;;10.33;2.50;;;;;;;;;;4992289;28;20014;-57
2024/02/21 07:01:05;;;;;;;13.13;3.10;;;;;;;;;;4995799;28;20021;-56
2024/02/21 07:03:31;;;;;;;8.85;2.33;;;;;;;;;;5010397;28;20010;-56
2024/02/21 07:05:56;;;;;;;12.40;2.58;;;;;;;;;;5023524;28;20014;-57
2024/02/21 07:08:21;;;;;;;8.23;2.60;;;;;;;;;;5039656;28;20381;-56
2024/02/21 07:10:47;;;;;;;8.07;2.42;;;;;;;;;;5028521;28;20046;-56
2024/02/21 07:13:13;;;;;;;9.48;2.53;;;;;;;;;;5025279;28;20086;-56
2024/02/21 07:15:38;;;;;;;7.05;2.30;;;;;;;;;;5013798;28;20096;-57
2024/02/21 07:18:03;;;;;;;10.60;2.23;;;;;;;;;;5012406;28;20022;-57
2024/02/21 07:20:28;;;;;;;8.80;2.27;;;;;;;;;;5005137;28;20462;-57
2024/02/21 07:22:54;;;;;;;8.53;2.30;;;;;;;;;;5010656;28;20821;-56
2024/02/21 07:25:19;;;;;;;10.73;2.50;;;;;;;;;;5010517;28;20452;-57
2024/02/21 07:27:44;;;;;;;8.32;2.00;;;;;;;;;;5011220;28;20072;-56
2024/02/21 07:30:10;;;;;;;9.20;2.42;;;;;;;;;;5009484;28;20028;-58
2024/02/21 07:32:35;;;;;;;8.03;2.10;;;;;;;;;;5011191;28;20080;-57
2024/02/21 07:35:00;;;;;;;10.77;3.30;;;;;;;;;;5004425;28;20457;-56
2024/02/21 07:37:25;;;;;;;8.00;2.30;;;;;;;;;;4994773;28;20429;-56
2024/02/21 07:39:50;;;;;;;9.18;2.13;;;;;;;;;;5000468;28;20025;-57
2024/02/21 07:42:15;;;;;;;8.30;2.40;;;;;;;;;;5024045;28;20041;-56
2024/02/21 07:44:42;;;;;;;9.32;2.22;;;;;;;;;;5034315;28;20033;-55
2024/02/21 07:47:07;;;;;;;12.00;2.85;;;;;;;;;;5015115;28;20563;-58
2024/02/21 07:49:32;;;;;;;10.30;2.47;;;;;;;;;;5014953;28;20030;-57
2024/02/21 07:52:00;;;;;;;10.45;2.20;;;;;;;;;;5015165;28;20113;-58
2024/02/21 07:54:25;;;;;;;10.35;2.35;;;;;;;;;;5015628;28;20034;-56
2024/02/21 07:56:50;;;;;;;7.73;2.10;;;;;;;;;;5021817;28;20386;-56
2024/02/21 07:59:15;;;;;;;9.83;2.40;;;;;;;;;;5024860;28;20022;-60
2024/02/21 08:01:40;;;;;;;9.50;3.35;;;;;;;;;;5024650;28;20026;-56
2024/02/21 08:04:06;;;;;;;8.93;2.40;;;;;;;;;;5017441;28;20123;-57
2024/02/21 08:06:31;;;;;;;9.48;2.47;;;;;;;;;;5015437;28;20056;-57
2024/02/21 08:08:57;;;;;;;8.63;2.15;;;;;;;;;;5014650;28;20014;-57
2024/02/21 08:11:22;;;;;;;9.80;2.40;;;;;;;;;;5014291;28;20053;-57
2024/02/21 08:13:47;;;;;;;9.80;2.20;;;;;;;;;;5013852;28;20045;-57
2024/02/21 08:16:12;;;;;;;8.13;2.07;;;;;;;;;;5014234;28;20097;-58
2024/02/21 08:18:38;;;;;;;10.23;2.10;;;;;;;;;;5013369;28;20026;-56
2024/02/21 08:21:03;;;;;;;8.30;2.20;;;;;;;;;;5013652;28;20061;-56
2024/02/21 08:23:30;;;;;;;8.80;2.20;;;;;;;;;;5013329;28;20025;-55
2024/02/21 08:25:56;;;;;;;7.07;2.33;;;;;;;;;;5013624;28;20048;-56
2024/02/21 08:28:21;;;;;;;8.63;2.38;;;;;;;;;;5003940;28;20022;-58
2024/02/21 08:30:49;;;;;;;8.57;2.42;;;;;;;;;;4994543;28;20030;-58
2024/02/21 08:33:15;;;;;;;8.32;2.40;;;;;;;;;;4994262;28;20022;-57
2024/02/21 08:35:40;;;;;;;9.63;2.60;;;;;;;;;;5005550;28;20030;-57
2024/02/21 08:38:05;;;;;;;8.95;2.38;;;;;;;;;;5013764;28;20033;-57
2024/02/21 08:40:30;;;;;;;12.20;2.77;;;;;;;;;;5013501;28;20049;-56
2024/02/21 08:42:55;;;;;;;10.25;2.55;;;;;;;;;;5013153;28;20014;-57
2024/02/21 08:45:20;;;;;;;9.53;2.67;;;;;;;;;;5012887;28;20022;-57
2024/02/21 08:47:46;;;;;;;8.82;2.85;;;;;;;;;;5013180;28;20030;-57
2024/02/21 08:50:11;;;;;;;13.15;2.45;;;;;;;;;;5013254;28;20018;-56
2024/02/21 08:52:36;;;;;;;10.35;2.75;;;;;;;;;;5013160;28;20527;-57
2024/02/21 08:55:01;;;;;;;9.90;2.67;;;;;;;;;;5012904;28;20029;-56
2024/02/21 08:57:27;;;;;;;8.82;2.53;;;;;;;;;;5012889;28;20104;-57
2024/02/21 08:59:52;;;;;;;8.00;2.15;;;;;;;;;;5012536;28;20060;-57
2024/02/21 09:02:17;;;;;;;6.77;2.43;;;;;;;;;;5011404;28;20406;-57
2024/02/21 09:04:43;;;;;;;12.00;2.70;;;;;;;;;;5012401;28;20032;-57
2024/02/21 09:07:08;;;;;;;8.93;2.40;;;;;;;;;;5012724;28;20024;-56
2024/02/21 09:09:34;;;;;;;11.10;2.33;;;;;;;;;;5012395;28;20026;-58
2024/02/21 09:12:05;;;;;;;10.05;2.72;;;;;;;;;;5012221;28;20033;-56
2024/02/21 09:14:30;;;;;;;9.55;2.35;;;;;;;;;;5012272;28;20506;-56
2024/02/21 09:16:56;;;;;;;9.67;2.50;;;;;;;;;;5005858;28;20026;-57
2024/02/21 09:19:21;;;;;;;11.73;2.47;;;;;;;;;;4992940;28;20503;-57
2024/02/21 09:21:46;;;;;;;9.48;2.20;;;;;;;;;;4992015;28;20499;-57
2024/02/21 09:24:11;;;;;;;11.17;2.80;;;;;;;;;;4992242;28;20076;-57
2024/02/21 09:26:36;;;;;;;9.40;3.30;;;;;;;;;;4992241;28;20594;-56
2024/02/21 09:29:01;;;;;;;7.37;2.63;;;;;;;;;;4992888;28;20525;-58
2024/02/21 09:31:27;;;;;;;9.57;2.60;;;;;;;;;;4992682;28;20142;-56
2024/02/21 09:33:52;;;;;;;10.80;3.25;;;;;;;;;;4992794;28;20037;-56
2024/02/21 09:36:17;;;;;;;11.10;3.50;;;;;;;;;;4993991;28;20061;-57
2024/02/21 09:38:42;;;;;;;9.17;2.37;;;;;;;;;;5011980;28;20037;-57
2024/02/21 09:41:27;;;;;;;10.33;2.87;;;;;;;;;;5012456;28;20037;-57
2024/02/21 09:43:55;;;;;;;9.52;2.55;;;;;;;;;;5010435;28;20374;-56
2024/02/21 09:46:24;;;;;;;7.82;2.42;;;;;;;;;;5012300;28;20228;-56
2024/02/21 09:49:04;;;;;;;6.72;2.15;;;;;;;;;;5012037;28;20470;-58
2024/02/21 09:51:30;;;;;;;8.88;2.50;;;;;;;;;;5012555;28;20045;-58
2024/02/21 09:53:56;;;;;;;9.85;2.60;;;;;;;;;;5012932;28;20022;-56
2024/02/21 09:56:22;;;;;;;8.23;2.58;;;;;;;;;;5010089;28;20534;-57
2024/02/21 09:58:47;;;;;;;8.60;2.67;;;;;;;;;;5012984;28;20076;-57
2024/02/21 10:01:12;;;;;;;9.75;2.72;;;;;;;;;;5011686;28;20030;-56
2024/02/21 10:03:39;;;;;;;10.63;2.80;;;;;;;;;;5011868;28;20052;-56
2024/02/21 10:06:04;;;;;;;7.18;2.33;;;;;;;;;;5012501;28;20034;-56
2024/02/21 10:08:30;;;;;;;10.40;2.60;;;;;;;;;;5012747;28;20026;-56
2024/02/21 10:10:58;;;;;;;8.75;3.28;;;;;;;;;;5011847;28;20026;-57
2024/02/21 10:13:27;;;;;;;7.95;2.50;;;;;;;;;;5004389;28;20011;-57
2024/02/21 10:16:02;;;;;;;10.60;2.20;;;;;;;;;;4992852;28;20029;-55
2024/02/21 10:18:28;;;;;;;9.48;2.55;;;;;;;;;;5016066;28;20032;-57
2024/02/21 10:21:08;;;;;;;10.63;2.80;;;;;;;;;;5018163;28;20093;-60
2024/02/21 10:23:43;;;;;;;9.23;2.40;;;;;;;;;;5016846;28;20006;-56
2024/02/21 10:26:08;;;;;;;8.75;2.47;;;;;;;;;;5019714;28;20045;-57
2024/02/21 10:28:34;;;;;;;7.72;2.50;;;;;;;;;;5011678;28;20022;-57
2024/02/21 10:30:59;;;;;;;10.07;3.28;;;;;;;;;;5012195;28;20042;-57
2024/02/21 10:33:25;;;;;;;8.35;2.45;;;;;;;;;;5012390;28;20051;-56
2024/02/21 10:35:51;;;;;;;7.88;2.15;;;;;;;;;;5012240;28;20006;-57
2024/02/21 10:38:16;;;;;;;7.68;2.17;;;;;;;;;;5020283;28;20033;-57
2024/02/21 10:40:41;;;;;;;10.10;2.60;;;;;;;;;;5034812;28;20030;-56
2024/02/21 10:43:09;;;;;;;7.22;2.47;;;;;;;;;;5035432;28;20014;-57
2024/02/21 10:45:35;;;;;;;7.47;2.38;;;;;;;;;;5031094;28;20022;-56
2024/02/21 10:48:06;;;;;;;10.00;2.55;;;;;;;;;;5026714;28;20022;-57
2024/02/21 10:50:32;;;;;;;10.57;2.67;;;;;;;;;;5023329;28;20114;-57
2024/02/21 10:53:05;;;;;;;8.63;2.67;;;;;;;;;;5019304;28;20100;-56
2024/02/21 10:55:30;;;;;;;;;;;;;;;;;;5014229;28;20029;-56
2024/02/21 10:57:57;;;;;;;7.90;1.92;;;;;;;;;;5016133;28;20000;-57
2024/02/21 11:00:27;;;;;;;;;;;;;;;;;;5016487;28;20367;-56
2024/02/21 11:02:52;;;;;;;7.97;2.40;;;;;;;;;;5012299;28;19976;-57
2024/02/21 11:05:17;;;;;;;9.93;3.10;;;;;;;;;;5012431;28;20026;-57
2024/02/21 11:07:43;;;;;;;10.98;3.28;;;;;;;;;;5014740;28;20030;-57
2024/02/21 11:10:20;;;;;;;11.48;3.95;;;;;;;;;;5016834;28;20049;-56
2024/02/21 11:12:45;;;;;;;11.50;3.40;;;;;;;;;;5015056;28;20371;-58
2024/02/21 11:15:11;;;;;;;10.77;3.20;;;;;;;;;;5015218;28;20017;-56
2024/02/21 11:17:36;;;;;;;8.50;3.22;;;;;;;;;;5015485;28;20083;-57
2024/02/21 11:20:12;;;;;;;12.13;3.13;;;;;;;;;;5015263;28;20052;-57
2024/02/21 11:22:41;;;;;;;7.47;2.53;;;;;;;;;;5014984;28;20073;-57
2024/02/21 11:25:09;;;;;;;8.40;2.38;;;;;;;;;;5004066;28;20034;-57
2024/02/21 11:27:34;;;;;;;7.57;2.55;;;;;;;;;;4994714;28;20037;-55
2024/02/21 11:30:00;;;;;;;7.03;2.30;;;;;;;;;;5010503;28;20033;-57
2024/02/21 11:32:26;;;;;;;7.68;2.25;;;;;;;;;;5014522;28;20068;-57
2024/02/21 11:34:54;;;;;;;8.95;2.40;;;;;;;;;;5013972;28;20052;-57
2024/02/21 11:37:19;;;;;;;8.48;2.17;;;;;;;;;;5014294;28;20471;-57
2024/02/21 11:39:45;;;;;;;8.13;2.40;;;;;;;;;;5014527;28;20506;-55
2024/02/21 11:42:12;;;;;;;8.27;2.45;;;;;;;;;;5005873;28;20502;-56
2024/02/21 11:44:38;;;;;;;12.60;2.60;;;;;;;;;;5006271;28;20146;-56
2024/02/21 11:47:03;;;;;;;8.23;2.28;;;;;;;;;;4994685;28;20483;-56
2024/02/21 11:49:29;;;;;;;8.90;2.38;;;;;;;;;;4998169;28;20048;-57
2024/02/21 11:52:01;;;;;;;9.50;2.25;;;;;;;;;;5013953;28;20398;-57
2024/02/21 11:54:26;;;;;;;8.63;2.20;;;;;;;;;;5014273;28;20018;-57
2024/02/21 11:56:51;;;;;;;9.98;2.40;;;;;;;;;;5014506;28;20029;-56
2024/02/21 11:59:17;;;;;;;8.35;2.60;;;;;;;;;;5013795;28;20022;-55
2024/02/21 12:01:42;;;;;;;8.57;2.30;;;;;;;;;;5013911;28;20032;-57
2024/02/21 12:04:07;;;;;;;6.43;2.20;;;;;;;;;;5013799;28;20108;-56
2024/02/21 12:06:32;;;;;;;6.18;1.70;;;;;;;;;;4994083;28;20014;-56
2024/02/21 12:08:58;;;;;;;10.10;2.23;;;;;;;;;;5013629;28;20084;-59
2024/02/21 12:11:23;;;;;;;6.88;2.20;;;;;;;;;;5014020;28;20485;-57
2024/02/21 12:13:59;;;;;;;7.40;1.73;;;;;;;;;;5015314;28;20014;-57
2024/02/21 12:16:25;;;;;;;5.72;2.00;;;;;;;;;;5024071;28;20034;-57
2024/02/21 12:18:52;;;;;;;4.63;1.60;;;;;;;;;;5014933;28;20049;-57
2024/02/21 12:21:17;;;;;;;8.10;1.80;;;;;;;;;;5014901;28;20026;-58
2024/02/21 12:23:42;;;;;;;5.78;1.60;;;;;;;;;;5022294;28;20032;-57
2024/02/21 12:26:08;;;;;;;4.73;1.40;;;;;;;;;;5023286;28;20037;-57
2024/02/21 12:28:33;;;;;;;7.70;2.07;;;;;;;;;;5025762;28;20022;-57
2024/02/21 12:30:58;;;;;;;6.18;1.95;;;;;;;;;;5020607;28;20030;-57
2024/02/21 12:33:23;;;;;;;6.10;1.60;;;;;;;;;;5014250;28;20045;-57
2024/02/21 12:35:49;;;;;;;5.95;1.85;;;;;;;;;;5015381;28;20030;-57
2024/02/21 12:38:14;;;;;;;8.00;1.83;;;;;;;;;;5016100;28;20037;-56
2024/02/21 12:40:41;;;;;;;5.60;1.60;;;;;;;;;;5015040;28;20029;-57
2024/02/21 12:43:06;;;;;;;;;;;;;;;;;;5014745;28;20026;-58
2024/02/21 12:45:31;;;;;;;7.53;1.80;;;;;;;;;;5013883;28;19912;-56
2024/02/21 12:47:57;;;;;;;6.80;1.60;;;;;;;;;;5013754;28;20116;-57
2024/02/21 12:50:22;;;;;;;6.25;1.80;;;;;;;;;;5012902;28;20021;-57
2024/02/21 12:52:49;;;;;;;6.57;2.07;;;;;;;;;;5013260;28;20018;-56
2024/02/21 12:55:15;;;;;;;;;;;;;;;;;;5013212;28;20105;-56
2024/02/21 12:57:40;;;;;;;7.35;2.25;;;;;;;;;;5013034;28;19953;-56
2024/02/21 13:00:08;;;;;;;7.65;2.17;;;;;;;;;;5012692;28;20049;-56
2024/02/21 13:02:34;;;;;;;7.18;1.77;;;;;;;;;;5012205;28;20032;-57
2024/02/21 13:05:00;;;;;;;5.85;1.77;;;;;;;;;;5012557;28;20038;-57
2024/02/21 13:07:25;;;;;;;7.05;1.85;;;;;;;;;;5001438;28;20446;-57
2024/02/21 13:09:50;;;;;;;7.30;1.70;;;;;;;;;;4992946;28;20065;-58
2024/02/21 13:12:15;;;;;;;6.57;1.57;;;;;;;;;;4992901;28;20512;-57
2024/02/21 13:14:43;;;;;;;8.77;2.27;;;;;;;;;;4993192;28;20018;-57
2024/02/21 13:17:09;;;;;;;5.32;1.55;;;;;;;;;;4993252;28;20021;-56
2024/02/21 13:19:34;;;;;;;6.18;2.10;;;;;;;;;;4992942;28;20022;-56
2024/02/21 13:21:59;;;;;;;7.88;2.05;;;;;;;;;;4993679;28;20041;-57
2024/02/21 13:24:24;;;;;;;6.05;1.67;;;;;;;;;;5010206;28;20040;-57
2024/02/21 13:26:49;;;;;;;7.80;1.80;;;;;;;;;;5018954;28;20053;-58
2024/02/21 13:29:14;;;;;;;7.10;2.03;;;;;;;;;;5014009;28;20095;-58
2024/02/21 13:31:40;;;;;;;5.57;1.40;;;;;;;;;;5012652;28;20506;-56
2024/02/21 13:34:05;;;;;;;6.27;1.70;;;;;;;;;;5013346;28;20028;-56
2024/02/21 13:36:30;;;;;;;5.75;1.67;;;;;;;;;;5012338;28;20093;-56
2024/02/21 13:38:55;;;;;;;6.93;1.77;;;;;;;;;;5015739;28;20018;-57
2024/02/21 13:41:22;;;;;;;6.28;1.80;;;;;;;;;;5012255;28;20113;-56
2024/02/21 13:43:48;;;;;;;6.43;1.90;;;;;;;;;;5013247;28;20025;-57
2024/02/21 13:46:13;;;;;;;6.97;2.20;;;;;;;;;;5013328;28;20482;-57
2024/02/21 13:48:39;;;;;;;8.48;2.17;;;;;;;;;;5012489;28;20014;-55
2024/02/21 13:51:04;;;;;;;8.40;1.92;;;;;;;;;;5010854;28;20452;-56
2024/02/21 13:53:29;;;;;;;7.63;2.25;;;;;;;;;;5011362;28;20033;-56
2024/02/21 13:55:54;;;;;;;7.33;2.17;;;;;;;;;;5011968;28;20036;-58
2024/02/21 13:58:20;;;;;;;6.28;1.80;;;;;;;;;;5010426;28;20036;-56
2024/02/21 14:00:46;;;;;;;5.63;1.95;;;;;;;;;;5011511;28;20025;-57
2024/02/21 14:03:11;;;;;;;6.97;2.25;;;;;;;;;;5011407;28;20104;-56
2024/02/21 14:05:36;;;;;;;8.43;2.40;;;;;;;;;;5011451;28;20080;-57
2024/02/21 14:08:01;;;;;;;8.02;2.50;;;;;;;;;;5009826;28;20123;-56
2024/02/21 14:10:27;;;;;;;7.30;2.10;;;;;;;;;;5010532;28;20044;-57
2024/02/21 14:12:52;;;;;;;5.53;1.67;;;;;;;;;;5011388;28;20017;-56
2024/02/21 14:15:17;;;;;;;8.13;2.10;;;;;;;;;;5011210;28;20028;-56
2024/02/21 14:17:43;;;;;;;7.17;1.87;;;;;;;;;;5011424;28;20480;-57
2024/02/21 14:20:08;;;;;;;7.88;2.20;;;;;;;;;;5011874;28;20083;-57
2024/02/21 14:22:34;;;;;;;6.68;2.20;;;;;;;;;;5010009;28;20049;-57
2024/02/21 14:24:59;;;;;;;8.23;2.20;;;;;;;;;;5008105;28;20164;-56
2024/02/21 14:27:25;;;;;;;6.90;1.95;;;;;;;;;;5010252;28;20029;-57
2024/02/21 14:29:50;;;;;;;6.45;2.03;;;;;;;;;;5008514;28;20072;-56
2024/02/21 14:32:15;;;;;;;7.85;2.00;;;;;;;;;;5011496;28;20029;-56